createdAt,value
2022-11-08T00:01:18.087Z,99891.78
2022-11-08T00:03:44.645Z,99912.03
2022-11-08T00:06:29.712Z,99910.13
2022-11-08T00:09:14.589Z,99917.25
2022-11-08T00:11:59.643Z,99928.97
2022-11-08T00:14:26.204Z,99936.44
2022-11-08T00:16:52.775Z,99929.81
2022-11-08T00:19:19.388Z,99942.88
2022-11-08T00:21:45.972Z,99950.78
2022-11-08T00:24:12.596Z,99947.53
2022-11-08T00:26:39.252Z,99950.03
2022-11-08T00:29:08.785Z,99960.06
2022-11-08T00:31:35.387Z,99964.19
2022-11-08T00:34:01.973Z,99964.09
2022-11-08T00:36:28.670Z,99976.13
2022-11-08T00:38:55.324Z,99975.50
2022-11-08T00:41:21.938Z,99983.97
2022-11-08T00:43:48.622Z,99991.66
2022-11-08T00:46:21.658Z,100002.25
2022-11-08T00:48:48.336Z,100006.59
2022-11-08T00:51:14.967Z,100007.44
2022-11-08T00:53:41.658Z,100008.97
2022-11-08T00:56:11.296Z,100012.53
2022-11-08T00:58:38.196Z,100017.25
2022-11-08T01:01:12.618Z,100017.91
2022-11-08T01:03:39.521Z,100029.25
2022-11-08T01:06:08.392Z,100030.28
2022-11-08T01:08:35.226Z,100034.81
2022-11-08T01:11:04.077Z,100046.97
2022-11-08T01:13:30.876Z,100087.50
2022-11-08T01:15:57.847Z,100117.16
2022-11-08T01:18:24.836Z,100133.81
2022-11-08T01:20:51.487Z,100150.06
2022-11-08T01:23:19.078Z,100156.25
2022-11-08T01:25:47.170Z,100176.63
2022-11-08T01:28:13.737Z,100191.81
2022-11-08T01:30:41.546Z,100199.31
2022-11-08T01:33:08.925Z,100214.28
2022-11-08T01:35:36.629Z,100208.56
2022-11-08T01:38:04.928Z,100221.50
2022-11-08T01:40:32.123Z,100255.56
2022-11-08T01:42:58.892Z,100266.06
2022-11-08T01:46:03.171Z,100267.06
2022-11-08T01:48:29.741Z,100271.75
2022-11-08T01:50:57.728Z,100285.44
2022-11-08T01:53:25.279Z,100288.94
2022-11-08T01:55:52.878Z,100304.56
2022-11-08T01:58:21.970Z,100308.09
2022-11-08T02:00:48.669Z,100324.97
2022-11-08T02:03:17.712Z,100324.34
2022-11-08T02:05:44.656Z,100332.75
2022-11-08T02:08:18.353Z,100381.56
2022-11-08T02:10:48.105Z,100439.78
2022-11-08T02:13:17.253Z,100464.28
2022-11-08T02:15:44.038Z,100471.56
2022-11-08T02:18:12.088Z,100499.06
2022-11-08T02:20:59.290Z,100505.56
2022-11-08T02:23:29.351Z,100512.19
2022-11-08T02:25:56.208Z,100527.03
2022-11-08T02:28:22.936Z,100532.06
2022-11-08T02:30:49.553Z,100537.03
2022-11-08T02:33:17.210Z,100556.25
2022-11-08T02:35:52.113Z,100567.97
2022-11-08T02:38:18.932Z,100575.31
2022-11-08T02:40:49.777Z,100596.50
2022-11-08T02:43:16.385Z,100601.66
2022-11-08T02:45:43.317Z,100609.63
2022-11-08T02:48:10.053Z,100630.00
2022-11-08T02:50:36.838Z,100636.56
2022-11-08T02:53:03.494Z,100656.09
2022-11-08T02:55:30.278Z,100675.09
2022-11-08T02:57:57.824Z,100681.69
2022-11-08T03:00:24.556Z,100680.88
2022-11-08T03:02:57.961Z,100695.31
2022-11-08T03:05:26.250Z,100704.53
2022-11-08T03:07:54.150Z,100720.00
2022-11-08T03:10:22.651Z,100758.91
2022-11-08T03:13:03.375Z,100771.91
2022-11-08T03:15:30.139Z,100788.38
2022-11-08T03:17:57.273Z,100793.00
2022-11-08T03:20:27.144Z,100826.41
2022-11-08T03:23:05.444Z,100823.69
2022-11-08T03:25:32.365Z,100837.16
2022-11-08T03:28:05.136Z,100850.16
2022-11-08T03:30:32.115Z,100849.00
2022-11-08T03:32:58.669Z,100876.31
2022-11-08T03:35:25.311Z,100906.03
2022-11-08T03:37:53.108Z,100898.81
2022-11-08T03:40:20.260Z,100898.81
2022-11-08T03:42:46.864Z,100892.16
2022-11-08T03:45:14.989Z,100893.94
2022-11-08T03:47:43.684Z,100888.34
2022-11-08T03:50:11.405Z,100882.41
2022-11-08T03:52:48.874Z,100862.38
2022-11-08T03:55:16.653Z,100849.38
2022-11-08T03:57:44.919Z,100828.34
2022-11-08T04:00:13.070Z,100815.34
2022-11-08T04:02:39.940Z,100788.75
2022-11-08T04:05:08.411Z,100777.22
2022-11-08T04:07:35.543Z,100758.44
2022-11-08T04:10:03.211Z,100750.03
2022-11-08T04:12:48.270Z,100725.50
2022-11-08T04:15:16.897Z,100709.75
2022-11-08T04:18:06.620Z,100708.38
2022-11-08T04:20:52.415Z,100711.69
2022-11-08T04:23:19.136Z,100707.25
2022-11-08T04:25:45.875Z,100709.38
2022-11-08T04:28:12.486Z,100700.41
2022-11-08T04:30:39.042Z,100701.06
2022-11-08T04:33:05.623Z,100698.69
2022-11-08T04:35:32.229Z,100676.56
2022-11-08T04:38:00.476Z,100690.75
2022-11-08T04:40:28.346Z,100679.97
2022-11-08T04:42:54.923Z,100681.81
2022-11-08T04:45:21.713Z,100671.00
2022-11-08T04:47:48.828Z,100675.53
2022-11-08T04:50:15.659Z,100662.44
2022-11-08T04:52:42.792Z,100670.81
2022-11-08T04:55:09.640Z,100653.56
2022-11-08T04:57:36.256Z,100662.16
2022-11-08T05:00:03.046Z,100634.69
2022-11-08T05:02:29.745Z,100634.16
2022-11-08T05:04:57.765Z,100625.50
2022-11-08T05:07:24.409Z,100630.09
2022-11-08T05:09:50.995Z,100608.25
2022-11-08T05:12:17.623Z,100607.88
2022-11-08T05:14:44.187Z,100605.56
2022-11-08T05:17:10.794Z,100594.69
2022-11-08T05:19:55.973Z,100602.53
2022-11-08T05:22:52.161Z,100603.72
2022-11-08T05:25:18.747Z,100601.41
2022-11-08T05:27:45.342Z,100615.41
2022-11-08T05:30:12.219Z,100608.69
2022-11-08T05:32:38.852Z,100615.84
2022-11-08T05:35:06.124Z,100619.34
2022-11-08T05:37:32.800Z,100629.31
2022-11-08T05:39:59.362Z,100627.38
2022-11-08T05:42:25.942Z,100642.97
2022-11-08T05:44:52.558Z,100642.78
2022-11-08T05:47:19.399Z,100641.28
2022-11-08T05:49:45.997Z,100629.59
2022-11-08T05:52:12.544Z,100633.66
2022-11-08T05:54:39.141Z,100621.13
2022-11-08T05:57:05.786Z,100615.69
2022-11-08T05:59:32.337Z,100617.84
2022-11-08T06:01:58.982Z,100625.38
2022-11-08T06:04:25.663Z,100607.44
2022-11-08T06:06:52.277Z,100600.50
2022-11-08T06:09:18.858Z,100601.50
2022-11-08T06:11:45.459Z,100596.09
2022-11-08T06:14:12.977Z,100589.00
2022-11-08T06:16:39.972Z,100579.41
2022-11-08T06:19:06.621Z,100564.84
2022-11-08T06:21:33.177Z,100566.34
2022-11-08T06:23:59.972Z,100552.88
2022-11-08T06:26:26.729Z,100580.16
2022-11-08T06:28:53.400Z,100568.47
2022-11-08T06:31:20.121Z,100552.16
2022-11-08T06:33:46.792Z,100539.25
2022-11-08T06:36:13.696Z,100527.09
2022-11-08T06:38:40.271Z,100520.34
2022-11-08T06:41:06.900Z,100500.72
2022-11-08T06:43:34.032Z,100491.53
2022-11-08T06:46:02.209Z,100491.94
2022-11-08T06:48:35.108Z,100472.91
2022-11-08T06:51:03.193Z,100469.03
2022-11-08T06:53:29.871Z,100471.25
2022-11-08T06:55:56.476Z,100461.97
2022-11-08T06:58:23.078Z,100450.66
2022-11-08T07:00:49.746Z,100448.47
2022-11-08T07:03:17.427Z,100431.81
2022-11-08T07:05:44.078Z,100399.09
2022-11-08T07:08:10.985Z,100394.72
2022-11-08T07:10:37.628Z,100375.88
2022-11-08T07:13:06.924Z,100374.47
2022-11-08T07:15:35.245Z,100361.88
2022-11-08T07:18:07.911Z,100338.19
2022-11-08T07:20:34.929Z,100336.63
2022-11-08T07:23:01.706Z,100332.47
2022-11-08T07:25:28.970Z,100306.16
2022-11-08T07:27:56.885Z,100308.53
2022-11-08T07:30:23.753Z,100286.75
2022-11-08T07:32:50.514Z,100276.91
2022-11-08T07:35:17.231Z,100258.00
2022-11-08T07:37:43.815Z,100238.03
2022-11-08T07:40:11.192Z,100217.88
2022-11-08T07:43:04.626Z,100194.00
2022-11-08T07:45:25.462Z,100171.16
2022-11-08T07:48:09.558Z,100141.06
2022-11-08T07:50:38.304Z,100131.19
2022-11-08T07:53:05.067Z,100103.16
2022-11-08T07:55:31.666Z,100087.09
2022-11-08T07:58:01.988Z,100069.56
2022-11-08T08:00:29.812Z,100057.56
2022-11-08T08:03:08.340Z,100041.06
2022-11-08T08:06:00.734Z,100013.63
2022-11-08T08:08:33.102Z,99991.56
2022-11-08T08:11:00.757Z,99975.38
2022-11-08T08:13:27.936Z,99954.13
2022-11-08T08:16:04.539Z,99941.31
2022-11-08T08:18:31.338Z,99932.66
2022-11-08T08:20:58.254Z,99924.09
2022-11-08T08:23:35.471Z,99913.44
2022-11-08T08:26:03.367Z,99899.13
2022-11-08T08:28:30.229Z,99891.47
2022-11-08T08:30:56.969Z,99883.91
2022-11-08T08:33:28.843Z,99878.28
2022-11-08T08:35:56.535Z,99866.41
2022-11-08T08:38:23.258Z,99853.59
2022-11-08T08:40:51.517Z,99850.56
2022-11-08T08:43:20.019Z,99843.56
2022-11-08T08:45:47.174Z,99837.91
2022-11-08T08:48:13.900Z,99827.31
2022-11-08T08:50:42.119Z,99825.53
2022-11-08T08:53:10.296Z,99825.81
2022-11-08T08:55:39.132Z,99804.25
2022-11-08T08:58:05.890Z,99797.38
2022-11-08T09:03:22.327Z,99782.59
2022-11-08T09:05:49.129Z,99781.91
2022-11-08T09:08:15.945Z,99788.69
2022-11-08T09:10:43.247Z,99762.25
2022-11-08T09:13:09.914Z,99771.94
2022-11-08T09:15:40.966Z,99776.84
2022-11-08T09:18:08.045Z,99755.38
2022-11-08T09:24:54.278Z,99770.34
2022-11-08T09:27:37.183Z,99744.81
2022-11-08T09:30:07.795Z,99754.03
2022-11-08T09:32:59.046Z,99741.47
2022-11-08T09:35:56.235Z,99745.41
2022-11-08T09:38:34.228Z,99740.03
2022-11-08T09:41:19.454Z,99704.47
2022-11-08T09:44:02.128Z,99719.66
2022-11-08T09:46:41.271Z,99690.53
2022-11-08T09:49:17.187Z,99700.69
2022-11-08T09:51:43.980Z,99675.41
2022-11-08T09:54:33.034Z,99676.78
2022-11-08T09:57:56.255Z,99659.09
2022-11-08T10:00:35.662Z,99652.13
2022-11-08T10:04:15.107Z,99633.34
2022-11-08T10:20:26.881Z,99623.19
2022-11-08T10:27:03.322Z,99614.03
2022-11-08T10:30:17.532Z,99615.03
2022-11-08T10:32:57.441Z,99601.97
2022-11-08T10:35:40.342Z,99609.31
2022-11-08T10:38:22.721Z,99588.91
2022-11-08T10:41:14.089Z,99606.06
2022-11-08T10:43:53.719Z,99602.53
2022-11-08T10:46:40.169Z,99597.84
2022-11-08T10:49:14.623Z,99600.19
2022-11-08T10:51:43.396Z,99602.19
2022-11-08T10:54:48.593Z,99599.63
2022-11-08T10:57:37.811Z,99598.25
2022-11-08T11:00:23.350Z,99590.69
2022-11-08T11:02:55.608Z,99584.56
2022-11-08T11:05:42.170Z,99573.94
2022-11-08T11:08:08.834Z,99592.09
2022-11-08T11:10:37.944Z,99565.69
2022-11-08T11:13:15.201Z,99564.94
2022-11-08T11:15:55.379Z,99573.72
2022-11-08T11:32:13.027Z,99552.84
2022-11-08T11:39:49.596Z,99535.94
2022-11-08T11:42:46.174Z,99521.84
2022-11-08T12:07:05.522Z,99497.19
2022-11-08T12:10:06.611Z,99498.59
2022-11-08T12:12:54.617Z,99501.31
2022-11-08T12:15:41.520Z,99509.16
2022-11-08T12:18:41.107Z,99497.94
2022-11-08T12:21:12.608Z,99489.91
2022-11-08T12:24:16.451Z,99489.84
2022-11-08T12:26:53.176Z,99498.19
2022-11-08T12:29:30.086Z,99485.25
2022-11-08T12:31:57.126Z,99484.78
2022-11-08T12:34:30.142Z,99482.75
2022-11-08T12:37:30.216Z,99486.56
2022-11-08T12:40:01.374Z,99485.75
2022-11-08T12:42:35.252Z,99495.56
2022-11-08T12:45:43.447Z,99495.94
2022-11-08T12:48:46.031Z,99493.47
2022-11-08T12:51:47.747Z,99486.50
2022-11-08T12:54:19.731Z,99486.16
2022-11-08T12:56:48.528Z,99488.50
2022-11-08T12:59:23.885Z,99493.88
2022-11-08T13:01:50.870Z,99494.63
2022-11-08T13:04:41.884Z,99488.94
2022-11-08T13:07:26.799Z,99481.56
2022-11-08T13:10:00.574Z,99476.91
2022-11-08T13:12:55.178Z,99487.13
2022-11-08T13:15:28.201Z,99487.06
2022-11-08T13:18:07.262Z,99476.06
2022-11-08T13:20:55.021Z,99477.69
2022-11-08T13:23:31.517Z,99484.78
2022-11-08T13:26:47.157Z,99481.78
2022-11-08T13:29:40.533Z,99472.25
2022-11-08T13:32:36.660Z,99471.03
2022-11-08T13:35:11.855Z,99477.50
2022-11-08T13:37:49.742Z,99470.94
2022-11-08T13:40:25.457Z,99460.25
2022-11-08T13:43:18.428Z,99465.16
2022-11-08T13:45:45.343Z,99474.31
2022-11-08T13:48:24.409Z,99475.84
2022-11-08T13:50:53.193Z,99480.38
2022-11-08T13:53:19.700Z,99485.38
2022-11-08T13:55:50.996Z,99475.19
2022-11-08T13:58:43.171Z,99476.25
2022-11-08T14:01:34.716Z,99485.78
2022-11-08T14:04:23.302Z,99489.00
2022-11-08T14:06:52.834Z,99493.56
2022-11-08T14:09:54.996Z,99494.31
2022-11-08T14:13:00.706Z,99484.59
2022-11-08T14:16:23.175Z,99483.69
2022-11-08T14:18:49.910Z,99483.91
2022-11-08T14:21:20.153Z,99484.41
2022-11-08T14:23:50.083Z,99481.16
2022-11-08T14:26:24.333Z,99470.56
2022-11-08T14:28:52.162Z,99465.09
2022-11-08T14:31:27.937Z,99469.00
2022-11-08T14:33:55.676Z,99480.84
2022-11-08T14:36:23.440Z,99489.91
2022-11-08T14:38:52.948Z,99501.34
2022-11-08T14:41:25.064Z,99502.06
2022-11-08T14:43:53.388Z,99501.91
2022-11-08T14:47:00.700Z,99492.78
2022-11-08T14:49:40.552Z,99498.31
2022-11-08T14:52:24.547Z,99494.91
2022-11-08T14:55:07.139Z,99489.41
2022-11-08T14:57:35.620Z,99488.28
2022-11-08T15:00:21.934Z,99492.72
2022-11-08T15:02:57.018Z,99506.56
2022-11-08T15:05:26.777Z,99494.34
2022-11-08T15:07:53.659Z,99500.13
2022-11-08T15:10:20.560Z,99493.09
2022-11-08T15:12:55.006Z,99500.25
2022-11-08T15:15:34.717Z,99492.34
2022-11-08T15:18:35.205Z,99478.41
2022-11-08T15:29:21.440Z,99469.69
2022-11-08T15:38:53.173Z,99452.56
2022-11-08T15:44:23.377Z,99463.41
2022-11-08T15:46:50.692Z,99463.41
2022-11-08T15:49:22.958Z,99448.22
2022-11-08T15:51:51.604Z,99461.50
2022-11-08T15:54:19.324Z,99449.19
2022-11-08T15:56:46.746Z,99448.78
2022-11-08T16:02:47.943Z,99447.19
2022-11-08T16:05:31.321Z,99462.22
2022-11-08T16:08:00.608Z,99458.03
2022-11-08T16:10:31.692Z,99457.03
2022-11-08T16:17:21.603Z,99451.53
2022-11-08T16:20:30.932Z,99446.84
2022-11-08T16:22:58.922Z,99444.56
2022-11-08T16:25:30.357Z,99442.59
2022-11-08T16:29:03.100Z,99454.00
2022-11-08T16:39:02.568Z,99443.97
2022-11-08T16:42:03.099Z,99430.84
2022-11-08T16:44:53.458Z,99436.84
2022-11-08T16:51:46.166Z,99438.03
2022-11-08T16:59:16.516Z,99434.81
2022-11-08T17:01:46.498Z,99438.22
2022-11-08T17:05:11.821Z,99440.31
2022-11-08T17:07:41.735Z,99456.69
2022-11-08T17:11:06.591Z,99445.28
2022-11-08T17:13:50.946Z,99454.34
2022-11-08T17:16:18.823Z,99452.50
2022-11-08T17:18:51.268Z,99451.81
2022-11-08T17:24:21.681Z,99446.22
2022-11-08T17:26:49.841Z,99446.66
2022-11-08T17:29:16.468Z,99438.03
2022-11-08T17:31:43.206Z,99451.91
2022-11-08T17:34:19.261Z,99454.13
2022-11-08T17:36:46.345Z,99457.25
2022-11-08T17:39:16.078Z,99447.06
2022-11-08T17:41:50.344Z,99447.81
2022-11-08T17:44:17.031Z,99442.16
2022-11-08T17:46:43.932Z,99447.84
2022-11-08T17:49:28.412Z,99427.88
2022-11-08T17:52:01.518Z,99451.75
2022-11-08T17:54:28.351Z,99446.84
2022-11-08T17:56:55.065Z,99447.31
2022-11-08T17:59:21.851Z,99455.00
2022-11-08T18:01:48.675Z,99441.81
2022-11-08T18:04:22.813Z,99443.91
2022-11-08T18:06:49.638Z,99460.13
2022-11-08T18:09:16.295Z,99453.03
2022-11-08T18:11:48.908Z,99431.16
2022-11-08T18:14:25.528Z,99431.44
2022-11-08T18:16:55.941Z,99432.41
2022-11-08T18:19:23.221Z,99434.09
2022-11-08T18:21:50.070Z,99453.50
2022-11-08T18:24:17.193Z,99449.41
2022-11-08T18:26:44.129Z,99447.47
2022-11-08T18:29:10.816Z,99429.97
2022-11-08T18:31:40.241Z,99450.34
2022-11-08T18:34:06.981Z,99443.41
2022-11-08T18:36:33.824Z,99436.16
2022-11-08T18:39:00.578Z,99426.84
2022-11-08T18:41:29.712Z,99434.44
2022-11-08T18:43:57.381Z,99418.69
2022-11-08T18:46:25.544Z,99431.34
2022-11-08T18:48:52.284Z,99436.84
2022-11-08T18:51:21.578Z,99429.97
2022-11-08T18:53:48.276Z,99422.19
2022-11-08T18:56:16.217Z,99433.06
2022-11-08T18:58:44.114Z,99422.19
2022-11-08T19:01:11.285Z,99420.38
2022-11-08T19:03:38.226Z,99426.34
2022-11-08T19:06:05.235Z,99415.59
2022-11-08T19:08:36.748Z,99418.25
2022-11-08T19:11:08.902Z,99404.00
2022-11-08T19:13:38.140Z,99405.66
2022-11-08T19:16:13.269Z,99396.59
2022-11-08T19:18:40.564Z,99403.84
2022-11-08T19:21:11.394Z,99386.09
2022-11-08T19:23:39.196Z,99392.69
2022-11-08T19:26:20.483Z,99398.00
2022-11-08T19:28:48.054Z,99398.50
2022-11-08T19:31:18.504Z,99419.94
2022-11-08T19:33:55.108Z,99405.94
2022-11-08T19:36:28.837Z,99402.41
2022-11-08T19:39:07.743Z,99404.53
2022-11-08T19:41:35.142Z,99400.94
2022-11-08T19:44:07.945Z,99399.13
2022-11-08T19:46:52.648Z,99400.13
2022-11-08T19:49:27.542Z,99408.06
2022-11-08T19:51:54.830Z,99399.63
2022-11-08T19:54:22.526Z,99389.50
2022-11-08T19:57:05.772Z,99391.28
2022-11-08T19:59:33.473Z,99395.31
2022-11-08T20:02:00.844Z,99385.59
2022-11-08T20:04:27.748Z,99398.09
2022-11-08T20:06:54.885Z,99404.03
2022-11-08T20:09:30.025Z,99392.75
2022-11-08T20:11:57.787Z,99390.00
2022-11-08T20:14:24.648Z,99400.44
2022-11-08T20:16:58.870Z,99411.38
2022-11-08T20:19:25.772Z,99405.00
2022-11-08T20:21:55.676Z,99406.41
2022-11-08T20:24:25.128Z,99406.25
2022-11-08T20:26:51.874Z,99408.19
2022-11-08T20:29:18.550Z,99416.84
2022-11-08T20:31:45.779Z,99404.25
2022-11-08T20:34:15.129Z,99408.75
2022-11-08T20:36:44.557Z,99411.53
2022-11-08T20:39:14.992Z,99414.78
2022-11-08T20:41:44.280Z,99423.28
2022-11-08T20:44:15.756Z,99428.41
2022-11-08T20:46:44.904Z,99425.66
2022-11-08T20:49:14.070Z,99417.19
2022-11-08T20:51:48.000Z,99424.91
2022-11-08T20:54:16.655Z,99415.56
2022-11-08T20:56:45.859Z,99431.13
2022-11-08T20:59:21.552Z,99430.31
2022-11-08T21:01:48.387Z,99433.75
2022-11-08T21:04:15.149Z,99435.19
2022-11-08T21:06:47.484Z,99444.50
2022-11-08T21:09:36.687Z,99437.16
2022-11-08T21:12:00.989Z,99452.78
2022-11-08T21:14:27.721Z,99456.13
2022-11-08T21:19:48.359Z,99452.28
2022-11-08T21:22:15.112Z,99445.78
2022-11-08T21:24:42.734Z,99444.97
2022-11-08T21:27:10.083Z,99462.06
2022-11-08T21:29:36.723Z,99463.25
2022-11-08T21:32:04.024Z,99458.47
2022-11-08T21:34:32.614Z,99462.38
2022-11-08T21:36:59.805Z,99473.94
2022-11-08T21:39:26.593Z,99458.31
2022-11-08T21:41:53.221Z,99468.34
2022-11-08T21:44:20.367Z,99470.03
2022-11-08T21:46:47.028Z,99466.63
2022-11-08T21:49:13.813Z,99472.81
2022-11-08T21:51:40.420Z,99470.13
2022-11-08T21:54:07.086Z,99476.09
2022-11-08T21:56:34.552Z,99479.00
2022-11-08T21:59:02.131Z,99484.97
2022-11-08T22:01:30.935Z,99483.66
2022-11-08T22:03:59.027Z,99489.50
2022-11-08T22:06:26.261Z,99491.03
2022-11-08T22:08:53.031Z,99489.88
2022-11-08T22:11:19.825Z,99494.78
2022-11-08T22:13:46.401Z,99496.41
2022-11-08T22:16:13.156Z,99496.38
2022-11-08T22:21:38.525Z,99493.03
2022-11-08T22:24:22.473Z,99495.56
2022-11-08T22:26:50.821Z,99493.25
2022-11-08T22:29:18.037Z,99487.66
2022-11-08T22:31:45.159Z,99494.53
2022-11-08T22:34:12.055Z,99505.19
2022-11-08T22:36:44.389Z,99493.72
2022-11-08T22:39:14.075Z,99492.00
2022-11-08T22:41:41.027Z,99480.66
2022-11-08T22:44:11.781Z,99489.41
2022-11-08T22:46:39.609Z,99485.44
2022-11-08T22:49:06.203Z,99482.88
2022-11-08T22:51:32.822Z,99483.44
2022-11-08T22:53:59.484Z,99481.94
2022-11-08T22:56:26.074Z,99482.63
2022-11-08T22:58:54.755Z,99490.09
2022-11-08T23:01:21.396Z,99485.88
2022-11-08T23:03:48.485Z,99484.19
2022-11-08T23:06:15.728Z,99485.25
2022-11-08T23:08:42.815Z,99492.94
2022-11-08T23:11:28.832Z,99494.75
2022-11-08T23:14:14.181Z,99492.19
2022-11-08T23:16:43.230Z,99488.03
2022-11-08T23:19:48.444Z,99481.94
2022-11-08T23:22:35.193Z,99474.09
2022-11-08T23:25:02.855Z,99472.09
2022-11-08T23:27:48.166Z,99464.66
2022-11-08T23:30:35.347Z,99476.66
2022-11-08T23:33:03.075Z,99482.03
2022-11-08T23:35:29.759Z,99467.78
2022-11-08T23:37:56.435Z,99465.91
2022-11-08T23:40:41.711Z,99476.88
2022-11-08T23:43:37.641Z,99466.97
2022-11-08T23:46:09.965Z,99461.78
2022-11-08T23:48:37.577Z,99469.53
2022-11-08T23:51:04.967Z,99468.94
2022-11-08T23:53:33.322Z,99473.41
2022-11-08T23:55:59.937Z,99477.34
2022-11-08T23:58:26.739Z,99469.44
